sensor_id;sensor_type;location;lat;lon;timestamp;temperature;humidity
72206;DHT22;60111;48.286;7.812;2023-01-29T00:01:10;1.50;71.90
72206;DHT22;60111;48.286;7.812;2023-01-29T00:03:43;1.50;72.00
72206;DHT22;60111;48.286;7.812;2023-01-29T00:06:16;1.50;71.90
72206;DHT22;60111;48.286;7.812;2023-01-29T00:08:49;1.50;71.50
72206;DHT22;60111;48.286;7.812;2023-01-29T00:11:21;1.60;71.70
72206;DHT22;60111;48.286;7.812;2023-01-29T00:13:56;1.60;71.60
72206;DHT22;60111;48.286;7.812;2023-01-29T00:16:28;1.60;71.60
72206;DHT22;60111;48.286;7.812;2023-01-29T00:19:01;1.60;70.80
72206;DHT22;60111;48.286;7.812;2023-01-29T00:21:34;1.50;71.00
72206;DHT22;60111;48.286;7.812;2023-01-29T00:24:07;1.50;70.90
72206;DHT22;60111;48.286;7.812;2023-01-29T00:26:40;1.50;71.00
72206;DHT22;60111;48.286;7.812;2023-01-29T00:29:13;1.50;71.10
72206;DHT22;60111;48.286;7.812;2023-01-29T00:31:46;1.50;71.00
72206;DHT22;60111;48.286;7.812;2023-01-29T00:34:19;1.50;70.80
72206;DHT22;60111;48.286;7.812;2023-01-29T00:36:51;1.50;70.80
72206;DHT22;60111;48.286;7.812;2023-01-29T00:39:25;1.50;71.00
72206;DHT22;60111;48.286;7.812;2023-01-29T00:42:00;1.40;71.00
72206;DHT22;60111;48.286;7.812;2023-01-29T00:44:51;1.50;71.10
72206;DHT22;60111;48.286;7.812;2023-01-29T00:47:29;1.50;71.00
72206;DHT22;60111;48.286;7.812;2023-01-29T00:50:06;1.40;71.20
72206;DHT22;60111;48.286;7.812;2023-01-29T00:52:39;1.40;71.60
72206;DHT22;60111;48.286;7.812;2023-01-29T00:55:12;1.40;71.90
72206;DHT22;60111;48.286;7.812;2023-01-29T00:57:45;1.40;72.00
72206;DHT22;60111;48.286;7.812;2023-01-29T01:00:18;1.40;71.30
72206;DHT22;60111;48.286;7.812;2023-01-29T01:02:51;1.40;71.60
72206;DHT22;60111;48.286;7.812;2023-01-29T01:05:38;1.40;71.80
72206;DHT22;60111;48.286;7.812;2023-01-29T01:08:12;1.40;71.90
72206;DHT22;60111;48.286;7.812;2023-01-29T01:11:06;1.40;71.80
72206;DHT22;60111;48.286;7.812;2023-01-29T01:13:39;1.40;71.90
72206;DHT22;60111;48.286;7.812;2023-01-29T01:16:13;1.40;71.90
72206;DHT22;60111;48.286;7.812;2023-01-29T01:18:46;1.40;72.00
72206;DHT22;60111;48.286;7.812;2023-01-29T01:21:19;1.30;72.00
72206;DHT22;60111;48.286;7.812;2023-01-29T01:23:51;1.30;72.20
72206;DHT22;60111;48.286;7.812;2023-01-29T01:26:24;1.40;71.80
72206;DHT22;60111;48.286;7.812;2023-01-29T01:28:57;1.40;71.70
72206;DHT22;60111;48.286;7.812;2023-01-29T01:31:31;1.40;71.70
72206;DHT22;60111;48.286;7.812;2023-01-29T01:34:04;1.40;72.00
72206;DHT22;60111;48.286;7.812;2023-01-29T01:36:36;1.40;71.60
72206;DHT22;60111;48.286;7.812;2023-01-29T01:39:09;1.30;71.50
72206;DHT22;60111;48.286;7.812;2023-01-29T01:41:42;1.30;71.80
72206;DHT22;60111;48.286;7.812;2023-01-29T01:44:50;1.30;71.70
72206;DHT22;60111;48.286;7.812;2023-01-29T01:47:36;1.30;71.70
72206;DHT22;60111;48.286;7.812;2023-01-29T01:50:00;1.30;71.40
72206;DHT22;60111;48.286;7.812;2023-01-29T01:52:35;1.20;71.60
72206;DHT22;60111;48.286;7.812;2023-01-29T01:55:29;1.20;71.40
72206;DHT22;60111;48.286;7.812;2023-01-29T01:58:08;1.30;71.50
72206;DHT22;60111;48.286;7.812;2023-01-29T02:00:40;1.20;71.60
72206;DHT22;60111;48.286;7.812;2023-01-29T02:03:13;1.20;71.40
72206;DHT22;60111;48.286;7.812;2023-01-29T02:06:04;1.20;71.40
72206;DHT22;60111;48.286;7.812;2023-01-29T02:09:01;1.20;71.20
72206;DHT22;60111;48.286;7.812;2023-01-29T02:11:51;1.20;70.70
72206;DHT22;60111;48.286;7.812;2023-01-29T02:14:23;1.20;71.10
72206;DHT22;60111;48.286;7.812;2023-01-29T02:16:58;1.30;70.40
72206;DHT22;60111;48.286;7.812;2023-01-29T02:31:40;1.20;70.30
72206;DHT22;60111;48.286;7.812;2023-01-29T02:34:21;1.20;70.70
72206;DHT22;60111;48.286;7.812;2023-01-29T02:37:01;1.20;70.30
72206;DHT22;60111;48.286;7.812;2023-01-29T02:39:36;1.20;70.40
72206;DHT22;60111;48.286;7.812;2023-01-29T02:42:26;1.20;70.50
72206;DHT22;60111;48.286;7.812;2023-01-29T02:45:09;1.20;70.40
72206;DHT22;60111;48.286;7.812;2023-01-29T02:50:32;1.10;70.70
72206;DHT22;60111;48.286;7.812;2023-01-29T02:53:14;1.10;70.80
72206;DHT22;60111;48.286;7.812;2023-01-29T02:55:51;1.20;70.70
72206;DHT22;60111;48.286;7.812;2023-01-29T03:01:29;1.10;71.00
72206;DHT22;60111;48.286;7.812;2023-01-29T03:04:05;1.20;70.50
72206;DHT22;60111;48.286;7.812;2023-01-29T03:06:42;1.20;70.60
72206;DHT22;60111;48.286;7.812;2023-01-29T03:09:32;1.20;70.70
72206;DHT22;60111;48.286;7.812;2023-01-29T03:12:12;1.20;70.20
72206;DHT22;60111;48.286;7.812;2023-01-29T03:14:51;1.10;70.10
72206;DHT22;60111;48.286;7.812;2023-01-29T03:17:52;1.10;70.10
72206;DHT22;60111;48.286;7.812;2023-01-29T03:20:23;1.10;70.30
72206;DHT22;60111;48.286;7.812;2023-01-29T03:23:02;1.10;70.50
72206;DHT22;60111;48.286;7.812;2023-01-29T03:25:34;1.00;70.80
72206;DHT22;60111;48.286;7.812;2023-01-29T03:28:27;1.10;70.60
72206;DHT22;60111;48.286;7.812;2023-01-29T03:31:18;1.00;70.80
72206;DHT22;60111;48.286;7.812;2023-01-29T03:34:17;1.00;70.90
72206;DHT22;60111;48.286;7.812;2023-01-29T03:36:50;1.00;70.70
72206;DHT22;60111;48.286;7.812;2023-01-29T03:39:25;1.00;70.70
72206;DHT22;60111;48.286;7.812;2023-01-29T03:44:57;1.10;70.80
72206;DHT22;60111;48.286;7.812;2023-01-29T03:47:50;1.10;70.70
72206;DHT22;60111;48.286;7.812;2023-01-29T03:50:31;1.00;70.70
72206;DHT22;60111;48.286;7.812;2023-01-29T03:53:07;1.00;70.60
72206;DHT22;60111;48.286;7.812;2023-01-29T03:56:00;1.00;71.00
72206;DHT22;60111;48.286;7.812;2023-01-29T04:01:29;1.00;71.10
72206;DHT22;60111;48.286;7.812;2023-01-29T04:04:09;1.00;70.80
72206;DHT22;60111;48.286;7.812;2023-01-29T04:06:42;0.90;70.60
72206;DHT22;60111;48.286;7.812;2023-01-29T04:09:32;1.00;70.80
72206;DHT22;60111;48.286;7.812;2023-01-29T04:12:09;0.90;70.70
72206;DHT22;60111;48.286;7.812;2023-01-29T04:14:42;1.00;70.30
72206;DHT22;60111;48.286;7.812;2023-01-29T04:17:18;1.00;70.80
72206;DHT22;60111;48.286;7.812;2023-01-29T04:19:52;0.90;70.80
72206;DHT22;60111;48.286;7.812;2023-01-29T04:22:33;0.90;70.80
72206;DHT22;60111;48.286;7.812;2023-01-29T04:25:09;0.90;70.90
72206;DHT22;60111;48.286;7.812;2023-01-29T04:31:04;0.90;71.00
72206;DHT22;60111;48.286;7.812;2023-01-29T04:39:21;1.00;71.10
72206;DHT22;60111;48.286;7.812;2023-01-29T04:42:23;1.00;70.70
72206;DHT22;60111;48.286;7.812;2023-01-29T04:50:38;0.90;71.20
72206;DHT22;60111;48.286;7.812;2023-01-29T04:53:22;0.80;71.40
72206;DHT22;60111;48.286;7.812;2023-01-29T04:59:00;0.80;71.70
72206;DHT22;60111;48.286;7.812;2023-01-29T05:01:33;0.80;71.70
72206;DHT22;60111;48.286;7.812;2023-01-29T05:04:12;0.90;71.70
72206;DHT22;60111;48.286;7.812;2023-01-29T05:06:45;0.90;72.00
72206;DHT22;60111;48.286;7.812;2023-01-29T05:09:19;0.90;71.80
72206;DHT22;60111;48.286;7.812;2023-01-29T05:11:52;0.80;72.00
72206;DHT22;60111;48.286;7.812;2023-01-29T05:14:27;0.90;72.00
72206;DHT22;60111;48.286;7.812;2023-01-29T05:17:04;0.90;71.90
72206;DHT22;60111;48.286;7.812;2023-01-29T05:19:37;0.90;71.50
72206;DHT22;60111;48.286;7.812;2023-01-29T05:22:12;0.90;72.00
72206;DHT22;60111;48.286;7.812;2023-01-29T05:24:45;0.90;72.10
72206;DHT22;60111;48.286;7.812;2023-01-29T05:27:28;0.80;72.30
72206;DHT22;60111;48.286;7.812;2023-01-29T05:30:14;0.90;72.00
72206;DHT22;60111;48.286;7.812;2023-01-29T05:32:47;0.90;72.00
72206;DHT22;60111;48.286;7.812;2023-01-29T05:35:20;0.90;72.10
72206;DHT22;60111;48.286;7.812;2023-01-29T05:37:53;0.90;72.00
72206;DHT22;60111;48.286;7.812;2023-01-29T05:40:26;0.80;72.00
72206;DHT22;60111;48.286;7.812;2023-01-29T05:42:58;0.90;71.90
72206;DHT22;60111;48.286;7.812;2023-01-29T05:45:31;0.90;71.40
72206;DHT22;60111;48.286;7.812;2023-01-29T05:48:04;0.80;71.60
72206;DHT22;60111;48.286;7.812;2023-01-29T05:50:37;0.80;71.40
72206;DHT22;60111;48.286;7.812;2023-01-29T05:53:09;0.80;71.40
72206;DHT22;60111;48.286;7.812;2023-01-29T05:55:46;0.80;71.50
72206;DHT22;60111;48.286;7.812;2023-01-29T05:58:19;0.80;71.50
72206;DHT22;60111;48.286;7.812;2023-01-29T06:00:51;0.80;71.40
72206;DHT22;60111;48.286;7.812;2023-01-29T06:03:24;0.80;71.40
72206;DHT22;60111;48.286;7.812;2023-01-29T06:05:57;0.80;71.60
72206;DHT22;60111;48.286;7.812;2023-01-29T06:08:29;0.70;71.80
72206;DHT22;60111;48.286;7.812;2023-01-29T06:11:02;0.70;71.70
72206;DHT22;60111;48.286;7.812;2023-01-29T06:13:35;0.80;71.70
72206;DHT22;60111;48.286;7.812;2023-01-29T06:16:09;0.70;71.80
72206;DHT22;60111;48.286;7.812;2023-01-29T06:18:42;0.80;71.60
72206;DHT22;60111;48.286;7.812;2023-01-29T06:21:14;0.80;71.60
72206;DHT22;60111;48.286;7.812;2023-01-29T06:23:47;0.80;71.40
72206;DHT22;60111;48.286;7.812;2023-01-29T06:26:20;0.80;71.10
72206;DHT22;60111;48.286;7.812;2023-01-29T06:28:52;0.70;71.40
72206;DHT22;60111;48.286;7.812;2023-01-29T06:31:25;0.70;71.50
72206;DHT22;60111;48.286;7.812;2023-01-29T06:33:57;0.70;71.40
72206;DHT22;60111;48.286;7.812;2023-01-29T06:36:31;0.60;71.40
72206;DHT22;60111;48.286;7.812;2023-01-29T06:39:04;0.60;71.90
72206;DHT22;60111;48.286;7.812;2023-01-29T06:41:36;0.50;72.20
72206;DHT22;60111;48.286;7.812;2023-01-29T06:44:09;0.50;72.20
72206;DHT22;60111;48.286;7.812;2023-01-29T06:46:41;0.50;71.60
72206;DHT22;60111;48.286;7.812;2023-01-29T06:49:14;0.50;71.80
72206;DHT22;60111;48.286;7.812;2023-01-29T06:51:46;0.50;71.70
72206;DHT22;60111;48.286;7.812;2023-01-29T06:54:19;0.50;71.50
72206;DHT22;60111;48.286;7.812;2023-01-29T06:56:51;0.50;71.30
72206;DHT22;60111;48.286;7.812;2023-01-29T06:59:24;0.50;70.70
72206;DHT22;60111;48.286;7.812;2023-01-29T07:01:57;0.50;71.00
72206;DHT22;60111;48.286;7.812;2023-01-29T07:04:30;0.50;70.90
72206;DHT22;60111;48.286;7.812;2023-01-29T07:07:02;0.50;70.80
72206;DHT22;60111;48.286;7.812;2023-01-29T07:09:35;0.50;71.00
72206;DHT22;60111;48.286;7.812;2023-01-29T07:12:09;0.50;71.20
72206;DHT22;60111;48.286;7.812;2023-01-29T07:14:41;0.50;70.40
72206;DHT22;60111;48.286;7.812;2023-01-29T07:17:14;0.60;70.30
72206;DHT22;60111;48.286;7.812;2023-01-29T07:19:46;0.60;69.70
72206;DHT22;60111;48.286;7.812;2023-01-29T07:22:19;0.50;70.00
72206;DHT22;60111;48.286;7.812;2023-01-29T07:24:51;0.50;69.40
72206;DHT22;60111;48.286;7.812;2023-01-29T07:27:24;0.50;69.50
72206;DHT22;60111;48.286;7.812;2023-01-29T07:29:56;0.50;69.80
72206;DHT22;60111;48.286;7.812;2023-01-29T07:32:29;0.50;69.70
72206;DHT22;60111;48.286;7.812;2023-01-29T07:35:01;0.50;70.00
72206;DHT22;60111;48.286;7.812;2023-01-29T07:37:34;0.60;70.10
72206;DHT22;60111;48.286;7.812;2023-01-29T07:40:08;0.70;69.80
72206;DHT22;60111;48.286;7.812;2023-01-29T07:42:41;0.70;69.90
72206;DHT22;60111;48.286;7.812;2023-01-29T07:45:14;0.70;69.80
72206;DHT22;60111;48.286;7.812;2023-01-29T07:47:52;0.70;69.60
72206;DHT22;60111;48.286;7.812;2023-01-29T07:50:26;0.80;69.70
72206;DHT22;60111;48.286;7.812;2023-01-29T07:52:59;0.80;69.80
72206;DHT22;60111;48.286;7.812;2023-01-29T07:55:32;0.80;69.60
72206;DHT22;60111;48.286;7.812;2023-01-29T07:58:05;0.80;69.40
72206;DHT22;60111;48.286;7.812;2023-01-29T08:00:38;0.80;69.50
72206;DHT22;60111;48.286;7.812;2023-01-29T08:03:13;0.80;69.40
72206;DHT22;60111;48.286;7.812;2023-01-29T08:05:46;0.90;69.30
72206;DHT22;60111;48.286;7.812;2023-01-29T08:08:19;0.90;69.10
72206;DHT22;60111;48.286;7.812;2023-01-29T08:10:52;0.90;68.90
72206;DHT22;60111;48.286;7.812;2023-01-29T08:13:24;1.00;69.00
72206;DHT22;60111;48.286;7.812;2023-01-29T08:16:01;1.00;68.80
72206;DHT22;60111;48.286;7.812;2023-01-29T08:18:36;1.10;68.80
72206;DHT22;60111;48.286;7.812;2023-01-29T08:21:09;1.10;68.10
72206;DHT22;60111;48.286;7.812;2023-01-29T08:23:41;1.10;68.50
72206;DHT22;60111;48.286;7.812;2023-01-29T08:26:14;1.10;68.30
72206;DHT22;60111;48.286;7.812;2023-01-29T08:28:46;1.10;68.10
72206;DHT22;60111;48.286;7.812;2023-01-29T08:31:19;1.10;68.30
72206;DHT22;60111;48.286;7.812;2023-01-29T08:33:53;1.20;68.10
72206;DHT22;60111;48.286;7.812;2023-01-29T08:36:26;1.20;67.90
72206;DHT22;60111;48.286;7.812;2023-01-29T08:38:58;1.30;67.70
72206;DHT22;60111;48.286;7.812;2023-01-29T08:41:32;1.30;67.20
72206;DHT22;60111;48.286;7.812;2023-01-29T08:44:04;1.30;67.70
72206;DHT22;60111;48.286;7.812;2023-01-29T08:46:37;1.30;67.70
72206;DHT22;60111;48.286;7.812;2023-01-29T08:49:11;1.40;67.70
72206;DHT22;60111;48.286;7.812;2023-01-29T08:51:43;1.40;67.40
72206;DHT22;60111;48.286;7.812;2023-01-29T08:54:16;1.40;67.10
72206;DHT22;60111;48.286;7.812;2023-01-29T08:56:49;1.50;66.90
72206;DHT22;60111;48.286;7.812;2023-01-29T08:59:23;1.60;67.20
72206;DHT22;60111;48.286;7.812;2023-01-29T09:01:55;1.60;66.80
72206;DHT22;60111;48.286;7.812;2023-01-29T09:04:28;1.70;66.50
72206;DHT22;60111;48.286;7.812;2023-01-29T09:07:00;1.70;66.10
72206;DHT22;60111;48.286;7.812;2023-01-29T09:09:33;1.80;66.00
72206;DHT22;60111;48.286;7.812;2023-01-29T09:12:06;1.80;65.70
72206;DHT22;60111;48.286;7.812;2023-01-29T09:14:38;1.90;65.70
72206;DHT22;60111;48.286;7.812;2023-01-29T09:17:11;1.90;65.70
72206;DHT22;60111;48.286;7.812;2023-01-29T09:19:45;2.00;65.40
72206;DHT22;60111;48.286;7.812;2023-01-29T09:22:19;2.10;64.80
72206;DHT22;60111;48.286;7.812;2023-01-29T09:24:51;2.10;64.70
72206;DHT22;60111;48.286;7.812;2023-01-29T09:27:24;2.10;65.00
72206;DHT22;60111;48.286;7.812;2023-01-29T09:29:56;2.20;64.70
72206;DHT22;60111;48.286;7.812;2023-01-29T09:32:29;2.30;64.90
72206;DHT22;60111;48.286;7.812;2023-01-29T09:35:02;2.40;64.90
72206;DHT22;60111;48.286;7.812;2023-01-29T09:37:35;2.60;64.10
72206;DHT22;60111;48.286;7.812;2023-01-29T09:40:15;2.80;63.50
72206;DHT22;60111;48.286;7.812;2023-01-29T09:42:47;3.10;62.60
72206;DHT22;60111;48.286;7.812;2023-01-29T09:45:24;3.50;60.60
72206;DHT22;60111;48.286;7.812;2023-01-29T09:47:59;4.10;58.90
72206;DHT22;60111;48.286;7.812;2023-01-29T09:50:38;4.70;57.60
72206;DHT22;60111;48.286;7.812;2023-01-29T09:53:29;5.40;56.10
72206;DHT22;60111;48.286;7.812;2023-01-29T09:56:11;6.20;54.30
72206;DHT22;60111;48.286;7.812;2023-01-29T09:58:44;6.70;51.40
72206;DHT22;60111;48.286;7.812;2023-01-29T10:04:36;7.70;48.50
72206;DHT22;60111;48.286;7.812;2023-01-29T10:10:14;7.40;48.10
72206;DHT22;60111;48.286;7.812;2023-01-29T10:13:16;6.80;50.00
72206;DHT22;60111;48.286;7.812;2023-01-29T10:21:49;5.80;51.90
72206;DHT22;60111;48.286;7.812;2023-01-29T10:26:51;6.50;51.50
72206;DHT22;60111;48.286;7.812;2023-01-29T10:29:24;7.10;50.40
72206;DHT22;60111;48.286;7.812;2023-01-29T10:31:59;7.80;48.60
72206;DHT22;60111;48.286;7.812;2023-01-29T10:34:44;8.20;47.30
72206;DHT22;60111;48.286;7.812;2023-01-29T10:37:17;8.50;46.30
72206;DHT22;60111;48.286;7.812;2023-01-29T10:39:52;8.40;46.00
72206;DHT22;60111;48.286;7.812;2023-01-29T10:42:37;8.20;46.60
72206;DHT22;60111;48.286;7.812;2023-01-29T10:51:02;7.30;48.20
72206;DHT22;60111;48.286;7.812;2023-01-29T10:56:33;6.80;48.50
72206;DHT22;60111;48.286;7.812;2023-01-29T10:59:27;6.50;49.30
72206;DHT22;60111;48.286;7.812;2023-01-29T11:01:41;6.40;50.80
72206;DHT22;60111;48.286;7.812;2023-01-29T11:04:14;6.20;51.00
72206;DHT22;60111;48.286;7.812;2023-01-29T11:06:48;6.10;51.70
72206;DHT22;60111;48.286;7.812;2023-01-29T11:12:18;5.80;52.10
72206;DHT22;60111;48.286;7.812;2023-01-29T11:20:36;5.20;54.00
72206;DHT22;60111;48.286;7.812;2023-01-29T11:23:31;5.20;54.70
72206;DHT22;60111;48.286;7.812;2023-01-29T11:26:05;5.10;54.90
72206;DHT22;60111;48.286;7.812;2023-01-29T11:28:44;5.10;54.90
72206;DHT22;60111;48.286;7.812;2023-01-29T11:31:23;5.10;54.60
72206;DHT22;60111;48.286;7.812;2023-01-29T11:34:05;5.10;54.90
72206;DHT22;60111;48.286;7.812;2023-01-29T11:36:38;5.20;54.40
72206;DHT22;60111;48.286;7.812;2023-01-29T11:39:19;5.30;53.80
72206;DHT22;60111;48.286;7.812;2023-01-29T11:41:57;5.30;54.00
72206;DHT22;60111;48.286;7.812;2023-01-29T11:44:32;5.40;53.90
72206;DHT22;60111;48.286;7.812;2023-01-29T11:47:27;5.40;54.10
72206;DHT22;60111;48.286;7.812;2023-01-29T11:50:02;5.60;53.70
72206;DHT22;60111;48.286;7.812;2023-01-29T11:52:39;5.70;53.30
72206;DHT22;60111;48.286;7.812;2023-01-29T11:55:15;5.90;52.10
72206;DHT22;60111;48.286;7.812;2023-01-29T11:58:03;6.00;51.50
72206;DHT22;60111;48.286;7.812;2023-01-29T12:00:39;6.10;51.50
72206;DHT22;60111;48.286;7.812;2023-01-29T12:06:54;5.90;51.30
72206;DHT22;60111;48.286;7.812;2023-01-29T12:08:42;5.80;51.60
72206;DHT22;60111;48.286;7.812;2023-01-29T12:11:24;5.80;51.30
72206;DHT22;60111;48.286;7.812;2023-01-29T12:13:59;5.80;51.10
72206;DHT22;60111;48.286;7.812;2023-01-29T12:16:46;5.80;51.00
72206;DHT22;60111;48.286;7.812;2023-01-29T12:19:25;5.80;51.50
72206;DHT22;60111;48.286;7.812;2023-01-29T12:22:07;5.70;51.70
72206;DHT22;60111;48.286;7.812;2023-01-29T12:24:55;5.80;51.50
72206;DHT22;60111;48.286;7.812;2023-01-29T12:27:40;5.90;51.10
72206;DHT22;60111;48.286;7.812;2023-01-29T12:30:43;5.90;51.30
72206;DHT22;60111;48.286;7.812;2023-01-29T12:33:30;6.00;50.80
72206;DHT22;60111;48.286;7.812;2023-01-29T12:36:11;6.10;49.20
72206;DHT22;60111;48.286;7.812;2023-01-29T12:38:43;6.10;49.70
72206;DHT22;60111;48.286;7.812;2023-01-29T12:41:41;6.10;50.30
72206;DHT22;60111;48.286;7.812;2023-01-29T12:44:34;6.30;49.80
72206;DHT22;60111;48.286;7.812;2023-01-29T12:47:16;6.40;49.10
72206;DHT22;60111;48.286;7.812;2023-01-29T12:49:46;6.40;48.90
72206;DHT22;60111;48.286;7.812;2023-01-29T12:55:14;6.40;48.90
72206;DHT22;60111;48.286;7.812;2023-01-29T13:00:26;6.50;48.20
72206;DHT22;60111;48.286;7.812;2023-01-29T13:05:59;6.50;48.30
72206;DHT22;60111;48.286;7.812;2023-01-29T13:08:50;6.70;48.20
72206;DHT22;60111;48.286;7.812;2023-01-29T13:11:34;6.90;47.60
72206;DHT22;60111;48.286;7.812;2023-01-29T13:14:21;7.10;47.00
72206;DHT22;60111;48.286;7.812;2023-01-29T13:17:05;7.20;47.20
72206;DHT22;60111;48.286;7.812;2023-01-29T13:19:35;7.20;48.10
72206;DHT22;60111;48.286;7.812;2023-01-29T13:22:15;7.30;47.50
72206;DHT22;60111;48.286;7.812;2023-01-29T13:24:44;7.40;47.30
72206;DHT22;60111;48.286;7.812;2023-01-29T13:27:23;7.50;46.50
72206;DHT22;60111;48.286;7.812;2023-01-29T13:29:56;7.20;47.30
72206;DHT22;60111;48.286;7.812;2023-01-29T13:32:31;6.80;48.20
72206;DHT22;60111;48.286;7.812;2023-01-29T13:35:11;6.50;48.70
72206;DHT22;60111;48.286;7.812;2023-01-29T13:37:46;6.10;49.20
72206;DHT22;60111;48.286;7.812;2023-01-29T13:40:27;5.90;50.00
72206;DHT22;60111;48.286;7.812;2023-01-29T13:43:01;5.70;50.40
72206;DHT22;60111;48.286;7.812;2023-01-29T13:45:44;5.40;51.90
72206;DHT22;60111;48.286;7.812;2023-01-29T13:48:24;5.30;51.50
72206;DHT22;60111;48.286;7.812;2023-01-29T13:50:59;5.10;52.00
72206;DHT22;60111;48.286;7.812;2023-01-29T13:53:35;5.00;52.80
72206;DHT22;60111;48.286;7.812;2023-01-29T13:58:54;5.10;52.80
72206;DHT22;60111;48.286;7.812;2023-01-29T14:04:21;5.30;52.80
72206;DHT22;60111;48.286;7.812;2023-01-29T14:07:04;5.30;52.30
72206;DHT22;60111;48.286;7.812;2023-01-29T14:17:30;5.10;53.10
72206;DHT22;60111;48.286;7.812;2023-01-29T14:20:17;5.00;53.00
72206;DHT22;60111;48.286;7.812;2023-01-29T14:22:55;5.00;53.00
72206;DHT22;60111;48.286;7.812;2023-01-29T14:25:32;4.80;53.30
72206;DHT22;60111;48.286;7.812;2023-01-29T14:28:12;4.80;54.20
72206;DHT22;60111;48.286;7.812;2023-01-29T14:30:44;4.70;54.70
72206;DHT22;60111;48.286;7.812;2023-01-29T14:33:30;4.50;55.20
72206;DHT22;60111;48.286;7.812;2023-01-29T14:36:02;4.50;54.90
72206;DHT22;60111;48.286;7.812;2023-01-29T14:38:34;4.50;55.30
72206;DHT22;60111;48.286;7.812;2023-01-29T14:41:13;4.50;54.60
72206;DHT22;60111;48.286;7.812;2023-01-29T14:43:46;4.50;54.60
72206;DHT22;60111;48.286;7.812;2023-01-29T14:49:09;4.40;54.20
72206;DHT22;60111;48.286;7.812;2023-01-29T14:51:43;4.40;54.80
72206;DHT22;60111;48.286;7.812;2023-01-29T14:54:24;4.30;55.10
72206;DHT22;60111;48.286;7.812;2023-01-29T14:57:01;4.30;55.30
72206;DHT22;60111;48.286;7.812;2023-01-29T14:59:47;4.30;55.70
72206;DHT22;60111;48.286;7.812;2023-01-29T15:02:23;4.30;55.50
72206;DHT22;60111;48.286;7.812;2023-01-29T15:04:55;4.30;55.40
72206;DHT22;60111;48.286;7.812;2023-01-29T15:07:41;4.30;55.20
72206;DHT22;60111;48.286;7.812;2023-01-29T15:13:30;4.30;55.50
72206;DHT22;60111;48.286;7.812;2023-01-29T15:16:16;4.20;55.50
72206;DHT22;60111;48.286;7.812;2023-01-29T15:18:41;4.20;55.50
72206;DHT22;60111;48.286;7.812;2023-01-29T15:21:16;4.20;55.80
72206;DHT22;60111;48.286;7.812;2023-01-29T15:24:02;4.20;55.80
72206;DHT22;60111;48.286;7.812;2023-01-29T15:26:24;4.30;55.60
72206;DHT22;60111;48.286;7.812;2023-01-29T15:29:01;4.20;55.70
72206;DHT22;60111;48.286;7.812;2023-01-29T15:31:35;4.20;55.80
72206;DHT22;60111;48.286;7.812;2023-01-29T15:34:10;4.20;55.80
72206;DHT22;60111;48.286;7.812;2023-01-29T15:36:43;4.10;55.70
72206;DHT22;60111;48.286;7.812;2023-01-29T15:39:24;4.10;56.40
72206;DHT22;60111;48.286;7.812;2023-01-29T15:42:13;4.10;56.10
72206;DHT22;60111;48.286;7.812;2023-01-29T15:44:48;4.00;56.00
72206;DHT22;60111;48.286;7.812;2023-01-29T15:47:23;4.00;56.30
72206;DHT22;60111;48.286;7.812;2023-01-29T15:49:56;4.00;56.10
72206;DHT22;60111;48.286;7.812;2023-01-29T15:52:30;3.90;55.80
72206;DHT22;60111;48.286;7.812;2023-01-29T15:55:18;3.80;55.80
72206;DHT22;60111;48.286;7.812;2023-01-29T15:57:43;3.70;56.10
72206;DHT22;60111;48.286;7.812;2023-01-29T16:00:24;3.70;56.60
72206;DHT22;60111;48.286;7.812;2023-01-29T16:02:58;3.60;56.90
72206;DHT22;60111;48.286;7.812;2023-01-29T16:05:33;3.50;57.50
72206;DHT22;60111;48.286;7.812;2023-01-29T16:08:05;3.40;57.80
72206;DHT22;60111;48.286;7.812;2023-01-29T16:10:40;3.30;58.40
72206;DHT22;60111;48.286;7.812;2023-01-29T16:13:21;3.20;58.90
72206;DHT22;60111;48.286;7.812;2023-01-29T16:16:01;3.10;59.60
72206;DHT22;60111;48.286;7.812;2023-01-29T16:18:38;3.00;59.70
72206;DHT22;60111;48.286;7.812;2023-01-29T16:21:34;2.90;60.30
72206;DHT22;60111;48.286;7.812;2023-01-29T16:24:12;2.90;61.30
72206;DHT22;60111;48.286;7.812;2023-01-29T16:26:49;2.80;61.80
72206;DHT22;60111;48.286;7.812;2023-01-29T16:29:28;2.60;62.00
72206;DHT22;60111;48.286;7.812;2023-01-29T16:32:00;2.60;62.10
72206;DHT22;60111;48.286;7.812;2023-01-29T16:34:36;2.60;62.10
72206;DHT22;60111;48.286;7.812;2023-01-29T16:37:21;2.60;62.00
72206;DHT22;60111;48.286;7.812;2023-01-29T16:39:54;2.60;62.70
72206;DHT22;60111;48.286;7.812;2023-01-29T16:42:29;2.50;62.90
72206;DHT22;60111;48.286;7.812;2023-01-29T16:45:05;2.50;62.70
72206;DHT22;60111;48.286;7.812;2023-01-29T16:47:39;2.40;62.90
72206;DHT22;60111;48.286;7.812;2023-01-29T16:50:23;2.30;63.00
72206;DHT22;60111;48.286;7.812;2023-01-29T16:52:59;2.20;63.30
72206;DHT22;60111;48.286;7.812;2023-01-29T16:55:40;2.20;63.70
72206;DHT22;60111;48.286;7.812;2023-01-29T16:58:21;2.10;64.20
72206;DHT22;60111;48.286;7.812;2023-01-29T17:01:08;2.00;64.40
72206;DHT22;60111;48.286;7.812;2023-01-29T17:03:42;1.90;64.70
72206;DHT22;60111;48.286;7.812;2023-01-29T17:06:22;1.90;65.10
72206;DHT22;60111;48.286;7.812;2023-01-29T17:08:55;1.80;65.20
72206;DHT22;60111;48.286;7.812;2023-01-29T17:11:36;1.70;65.80
72206;DHT22;60111;48.286;7.812;2023-01-29T17:14:11;1.70;65.80
72206;DHT22;60111;48.286;7.812;2023-01-29T17:16:55;1.70;65.80
72206;DHT22;60111;48.286;7.812;2023-01-29T17:19:28;1.70;65.70
72206;DHT22;60111;48.286;7.812;2023-01-29T17:22:01;1.60;66.00
72206;DHT22;60111;48.286;7.812;2023-01-29T17:24:35;1.60;66.50
72206;DHT22;60111;48.286;7.812;2023-01-29T17:27:15;1.50;66.70
72206;DHT22;60111;48.286;7.812;2023-01-29T17:29:46;1.40;66.80
72206;DHT22;60111;48.286;7.812;2023-01-29T17:32:18;1.40;67.00
72206;DHT22;60111;48.286;7.812;2023-01-29T17:34:51;1.30;67.20
72206;DHT22;60111;48.286;7.812;2023-01-29T17:37:24;1.20;67.30
72206;DHT22;60111;48.286;7.812;2023-01-29T17:39:56;1.20;67.80
72206;DHT22;60111;48.286;7.812;2023-01-29T17:42:30;1.20;67.80
72206;DHT22;60111;48.286;7.812;2023-01-29T17:45:03;1.10;68.20
72206;DHT22;60111;48.286;7.812;2023-01-29T17:47:36;1.00;68.10
72206;DHT22;60111;48.286;7.812;2023-01-29T17:50:15;0.90;69.00
72206;DHT22;60111;48.286;7.812;2023-01-29T17:52:44;0.90;69.00
72206;DHT22;60111;48.286;7.812;2023-01-29T17:55:16;0.70;69.40
72206;DHT22;60111;48.286;7.812;2023-01-29T17:57:49;0.70;69.60
72206;DHT22;60111;48.286;7.812;2023-01-29T18:00:23;0.60;70.00
72206;DHT22;60111;48.286;7.812;2023-01-29T18:02:56;0.50;70.20
72206;DHT22;60111;48.286;7.812;2023-01-29T18:05:30;0.50;70.50
72206;DHT22;60111;48.286;7.812;2023-01-29T18:08:03;0.60;70.20
72206;DHT22;60111;48.286;7.812;2023-01-29T18:10:35;0.60;70.20
72206;DHT22;60111;48.286;7.812;2023-01-29T18:13:08;0.50;70.30
72206;DHT22;60111;48.286;7.812;2023-01-29T18:15:41;0.50;70.80
72206;DHT22;60111;48.286;7.812;2023-01-29T18:18:17;0.50;70.40
72206;DHT22;60111;48.286;7.812;2023-01-29T18:20:49;0.50;70.40
72206;DHT22;60111;48.286;7.812;2023-01-29T18:23:22;0.50;70.40
72206;DHT22;60111;48.286;7.812;2023-01-29T18:25:55;0.40;70.40
72206;DHT22;60111;48.286;7.812;2023-01-29T18:28:28;0.40;70.50